sensor_id;sensor_type;location;lat;lon;timestamp;P1;durP1;ratioP1;P2;durP2;ratioP2
26588;SDS011;14235;48.532;8.722;2023-06-22T00:00:42;7.80;;;6.60;;
26588;SDS011;14235;48.532;8.722;2023-06-22T00:03:08;9.50;;;7.45;;
26588;SDS011;14235;48.532;8.722;2023-06-22T00:05:34;7.85;;;7.15;;
26588;SDS011;14235;48.532;8.722;2023-06-22T00:08:03;9.77;;;7.10;;
26588;SDS011;14235;48.532;8.722;2023-06-22T00:10:30;8.43;;;7.68;;
26588;SDS011;14235;48.532;8.722;2023-06-22T00:12:55;8.43;;;7.60;;
26588;SDS011;14235;48.532;8.722;2023-06-22T00:15:21;8.32;;;7.18;;
26588;SDS011;14235;48.532;8.722;2023-06-22T00:17:46;7.95;;;7.25;;
26588;SDS011;14235;48.532;8.722;2023-06-22T00:20:12;8.30;;;7.60;;
26588;SDS011;14235;48.532;8.722;2023-06-22T00:22:39;8.20;;;7.40;;
26588;SDS011;14235;48.532;8.722;2023-06-22T00:25:06;7.80;;;7.10;;
26588;SDS011;14235;48.532;8.722;2023-06-22T00:27:32;8.02;;;7.22;;
26588;SDS011;14235;48.532;8.722;2023-06-22T00:29:57;7.70;;;6.90;;
26588;SDS011;14235;48.532;8.722;2023-06-22T00:32:23;7.68;;;6.97;;
26588;SDS011;14235;48.532;8.722;2023-06-22T00:34:49;7.53;;;6.82;;
26588;SDS011;14235;48.532;8.722;2023-06-22T00:37:15;9.70;;;7.95;;
26588;SDS011;14235;48.532;8.722;2023-06-22T00:39:42;9.18;;;7.28;;
26588;SDS011;14235;48.532;8.722;2023-06-22T00:42:08;9.02;;;7.93;;
26588;SDS011;14235;48.532;8.722;2023-06-22T00:44:35;8.52;;;7.72;;
26588;SDS011;14235;48.532;8.722;2023-06-22T00:47:01;8.85;;;7.72;;
26588;SDS011;14235;48.532;8.722;2023-06-22T00:49:27;8.40;;;7.70;;
26588;SDS011;14235;48.532;8.722;2023-06-22T00:51:53;8.65;;;7.53;;
26588;SDS011;14235;48.532;8.722;2023-06-22T00:54:19;8.45;;;7.65;;
26588;SDS011;14235;48.532;8.722;2023-06-22T00:56:50;9.80;;;7.65;;
26588;SDS011;14235;48.532;8.722;2023-06-22T00:59:17;8.65;;;7.95;;
26588;SDS011;14235;48.532;8.722;2023-06-22T01:01:44;9.18;;;8.38;;
26588;SDS011;14235;48.532;8.722;2023-06-22T01:04:10;9.57;;;8.07;;
26588;SDS011;14235;48.532;8.722;2023-06-22T01:06:38;9.05;;;8.15;;
26588;SDS011;14235;48.532;8.722;2023-06-22T01:09:20;8.55;;;7.72;;
26588;SDS011;14235;48.532;8.722;2023-06-22T01:12:05;11.80;;;8.35;;
26588;SDS011;14235;48.532;8.722;2023-06-22T01:14:38;8.65;;;7.90;;
26588;SDS011;14235;48.532;8.722;2023-06-22T01:17:17;8.32;;;7.60;;
26588;SDS011;14235;48.532;8.722;2023-06-22T01:19:51;9.27;;;7.95;;
26588;SDS011;14235;48.532;8.722;2023-06-22T01:22:22;10.38;;;8.23;;
26588;SDS011;14235;48.532;8.722;2023-06-22T01:30:54;8.15;;;7.45;;
26588;SDS011;14235;48.532;8.722;2023-06-22T01:33:28;8.25;;;7.45;;
26588;SDS011;14235;48.532;8.722;2023-06-22T01:35:55;9.05;;;7.63;;
26588;SDS011;14235;48.532;8.722;2023-06-22T01:38:21;8.38;;;7.57;;
26588;SDS011;14235;48.532;8.722;2023-06-22T01:40:47;8.52;;;7.68;;
26588;SDS011;14235;48.532;8.722;2023-06-22T01:43:14;8.18;;;7.38;;
26588;SDS011;14235;48.532;8.722;2023-06-22T01:45:40;8.50;;;7.68;;
26588;SDS011;14235;48.532;8.722;2023-06-22T01:48:06;11.63;;;8.60;;
26588;SDS011;14235;48.532;8.722;2023-06-22T01:50:32;8.82;;;7.97;;
26588;SDS011;14235;48.532;8.722;2023-06-22T01:52:58;8.93;;;8.13;;
26588;SDS011;14235;48.532;8.722;2023-06-22T01:55:23;9.23;;;8.27;;
26588;SDS011;14235;48.532;8.722;2023-06-22T01:57:49;10.15;;;8.65;;
26588;SDS011;14235;48.532;8.722;2023-06-22T02:00:18;9.40;;;8.50;;
26588;SDS011;14235;48.532;8.722;2023-06-22T02:05:38;8.63;;;7.78;;
26588;SDS011;14235;48.532;8.722;2023-06-22T02:10:36;10.40;;;8.70;;
26588;SDS011;14235;48.532;8.722;2023-06-22T02:13:04;10.52;;;9.48;;
26588;SDS011;14235;48.532;8.722;2023-06-22T02:15:32;10.75;;;9.27;;
26588;SDS011;14235;48.532;8.722;2023-06-22T02:17:58;9.52;;;8.65;;
26588;SDS011;14235;48.532;8.722;2023-06-22T02:20:24;10.90;;;8.43;;
26588;SDS011;14235;48.532;8.722;2023-06-22T02:22:50;9.60;;;8.60;;
26588;SDS011;14235;48.532;8.722;2023-06-22T02:25:15;9.32;;;8.43;;
26588;SDS011;14235;48.532;8.722;2023-06-22T02:27:41;9.88;;;8.88;;
26588;SDS011;14235;48.532;8.722;2023-06-22T02:30:07;8.88;;;8.02;;
26588;SDS011;14235;48.532;8.722;2023-06-22T02:32:34;9.93;;;8.60;;
26588;SDS011;14235;48.532;8.722;2023-06-22T02:35:00;9.77;;;8.10;;
26588;SDS011;14235;48.532;8.722;2023-06-22T02:37:29;9.27;;;8.25;;
26588;SDS011;14235;48.532;8.722;2023-06-22T02:39:55;9.90;;;8.40;;
26588;SDS011;14235;48.532;8.722;2023-06-22T02:42:20;8.73;;;7.93;;
26588;SDS011;14235;48.532;8.722;2023-06-22T02:44:46;9.77;;;8.65;;
26588;SDS011;14235;48.532;8.722;2023-06-22T02:47:12;12.70;;;9.25;;
26588;SDS011;14235;48.532;8.722;2023-06-22T02:49:38;9.13;;;7.90;;
26588;SDS011;14235;48.532;8.722;2023-06-22T02:52:03;8.90;;;7.95;;
26588;SDS011;14235;48.532;8.722;2023-06-22T02:54:29;8.15;;;7.45;;
26588;SDS011;14235;48.532;8.722;2023-06-22T02:56:55;8.57;;;7.78;;
26588;SDS011;14235;48.532;8.722;2023-06-22T02:59:22;9.10;;;8.20;;
26588;SDS011;14235;48.532;8.722;2023-06-22T03:01:48;8.52;;;7.82;;
26588;SDS011;14235;48.532;8.722;2023-06-22T03:04:15;11.13;;;7.90;;
26588;SDS011;14235;48.532;8.722;2023-06-22T03:06:40;9.85;;;8.23;;
26588;SDS011;14235;48.532;8.722;2023-06-22T03:09:06;8.40;;;7.70;;
26588;SDS011;14235;48.532;8.722;2023-06-22T03:11:32;8.55;;;7.78;;
26588;SDS011;14235;48.532;8.722;2023-06-22T03:13:59;8.85;;;7.72;;
26588;SDS011;14235;48.532;8.722;2023-06-22T03:16:28;9.13;;;7.80;;
26588;SDS011;14235;48.532;8.722;2023-06-22T03:18:54;8.57;;;7.78;;
26588;SDS011;14235;48.532;8.722;2023-06-22T03:21:21;9.95;;;7.93;;
26588;SDS011;14235;48.532;8.722;2023-06-22T03:23:47;8.80;;;7.70;;
26588;SDS011;14235;48.532;8.722;2023-06-22T03:26:16;9.57;;;8.27;;
26588;SDS011;14235;48.532;8.722;2023-06-22T03:28:42;8.75;;;7.88;;
26588;SDS011;14235;48.532;8.722;2023-06-22T03:31:08;9.35;;;8.02;;
26588;SDS011;14235;48.532;8.722;2023-06-22T03:33:33;9.27;;;8.48;;
26588;SDS011;14235;48.532;8.722;2023-06-22T03:35:59;8.90;;;8.02;;
26588;SDS011;14235;48.532;8.722;2023-06-22T03:38:25;8.93;;;8.10;;
26588;SDS011;14235;48.532;8.722;2023-06-22T03:40:50;11.30;;;8.18;;
26588;SDS011;14235;48.532;8.722;2023-06-22T03:43:16;8.43;;;7.55;;
26588;SDS011;14235;48.532;8.722;2023-06-22T03:45:41;8.27;;;7.57;;
26588;SDS011;14235;48.532;8.722;2023-06-22T03:48:07;9.13;;;8.18;;
26588;SDS011;14235;48.532;8.722;2023-06-22T03:50:32;8.38;;;7.28;;
26588;SDS011;14235;48.532;8.722;2023-06-22T03:52:58;8.63;;;7.63;;
26588;SDS011;14235;48.532;8.722;2023-06-22T03:55:23;9.13;;;8.25;;
26588;SDS011;14235;48.532;8.722;2023-06-22T03:57:49;8.07;;;7.38;;
26588;SDS011;14235;48.532;8.722;2023-06-22T04:00:14;9.10;;;8.20;;
26588;SDS011;14235;48.532;8.722;2023-06-22T04:02:43;8.57;;;7.43;;
26588;SDS011;14235;48.532;8.722;2023-06-22T04:05:09;8.55;;;7.60;;
26588;SDS011;14235;48.532;8.722;2023-06-22T04:07:35;9.15;;;8.32;;
26588;SDS011;14235;48.532;8.722;2023-06-22T04:10:02;10.18;;;8.05;;
26588;SDS011;14235;48.532;8.722;2023-06-22T04:12:29;8.48;;;7.68;;
26588;SDS011;14235;48.532;8.722;2023-06-22T04:14:54;8.15;;;7.47;;
26588;SDS011;14235;48.532;8.722;2023-06-22T04:17:20;10.52;;;8.38;;
26588;SDS011;14235;48.532;8.722;2023-06-22T04:19:45;8.32;;;7.53;;
26588;SDS011;14235;48.532;8.722;2023-06-22T04:22:11;8.02;;;7.32;;
26588;SDS011;14235;48.532;8.722;2023-06-22T04:24:37;8.20;;;7.50;;
26588;SDS011;14235;48.532;8.722;2023-06-22T04:27:02;9.45;;;7.85;;
26588;SDS011;14235;48.532;8.722;2023-06-22T04:29:31;10.45;;;8.32;;
26588;SDS011;14235;48.532;8.722;2023-06-22T04:31:57;8.55;;;7.80;;
26588;SDS011;14235;48.532;8.722;2023-06-22T04:34:23;8.70;;;7.93;;
26588;SDS011;14235;48.532;8.722;2023-06-22T04:36:51;10.48;;;8.18;;
26588;SDS011;14235;48.532;8.722;2023-06-22T04:39:17;9.10;;;8.18;;
26588;SDS011;14235;48.532;8.722;2023-06-22T04:41:44;8.85;;;7.97;;
26588;SDS011;14235;48.532;8.722;2023-06-22T04:44:13;9.98;;;8.88;;
26588;SDS011;14235;48.532;8.722;2023-06-22T04:46:53;10.63;;;8.80;;
26588;SDS011;14235;48.532;8.722;2023-06-22T04:49:24;9.35;;;8.38;;
26588;SDS011;14235;48.532;8.722;2023-06-22T04:51:58;10.02;;;8.73;;
26588;SDS011;14235;48.532;8.722;2023-06-22T04:54:24;9.38;;;7.70;;
26588;SDS011;14235;48.532;8.722;2023-06-22T04:56:50;9.73;;;8.88;;
26588;SDS011;14235;48.532;8.722;2023-06-22T04:59:21;9.50;;;8.60;;
26588;SDS011;14235;48.532;8.722;2023-06-22T05:04:23;9.25;;;8.35;;
26588;SDS011;14235;48.532;8.722;2023-06-22T05:06:50;9.13;;;8.25;;
26588;SDS011;14235;48.532;8.722;2023-06-22T05:09:16;9.40;;;8.52;;
26588;SDS011;14235;48.532;8.722;2023-06-22T05:11:42;9.38;;;8.43;;
26588;SDS011;14235;48.532;8.722;2023-06-22T05:14:08;10.07;;;8.88;;
26588;SDS011;14235;48.532;8.722;2023-06-22T05:16:34;10.60;;;9.30;;
26588;SDS011;14235;48.532;8.722;2023-06-22T05:19:00;13.05;;;9.43;;
26588;SDS011;14235;48.532;8.722;2023-06-22T05:21:28;9.50;;;8.30;;
26588;SDS011;14235;48.532;8.722;2023-06-22T05:23:54;12.68;;;9.70;;
26588;SDS011;14235;48.532;8.722;2023-06-22T05:26:21;10.38;;;9.20;;
26588;SDS011;14235;48.532;8.722;2023-06-22T05:28:47;9.48;;;8.65;;
26588;SDS011;14235;48.532;8.722;2023-06-22T05:31:16;9.88;;;8.93;;
26588;SDS011;14235;48.532;8.722;2023-06-22T05:33:42;10.02;;;9.02;;
26588;SDS011;14235;48.532;8.722;2023-06-22T05:36:09;10.27;;;8.70;;
26588;SDS011;14235;48.532;8.722;2023-06-22T05:38:35;11.23;;;9.80;;
26588;SDS011;14235;48.532;8.722;2023-06-22T05:41:01;10.43;;;9.40;;
26588;SDS011;14235;48.532;8.722;2023-06-22T05:43:27;11.45;;;10.20;;
26588;SDS011;14235;48.532;8.722;2023-06-22T05:45:52;9.75;;;8.95;;
26588;SDS011;14235;48.532;8.722;2023-06-22T05:48:18;13.45;;;9.70;;
26588;SDS011;14235;48.532;8.722;2023-06-22T05:50:43;10.95;;;9.57;;
26588;SDS011;14235;48.532;8.722;2023-06-22T05:53:09;10.90;;;9.57;;
26588;SDS011;14235;48.532;8.722;2023-06-22T05:55:35;10.13;;;9.23;;
26588;SDS011;14235;48.532;8.722;2023-06-22T05:58:00;10.05;;;9.15;;
26588;SDS011;14235;48.532;8.722;2023-06-22T06:00:26;10.77;;;9.77;;
26588;SDS011;14235;48.532;8.722;2023-06-22T06:02:52;10.15;;;9.02;;
26588;SDS011;14235;48.532;8.722;2023-06-22T06:05:17;10.65;;;9.57;;
26588;SDS011;14235;48.532;8.722;2023-06-22T06:07:44;10.73;;;9.02;;
26588;SDS011;14235;48.532;8.722;2023-06-22T06:10:10;9.90;;;8.95;;
26588;SDS011;14235;48.532;8.722;2023-06-22T06:12:36;10.45;;;9.32;;
26588;SDS011;14235;48.532;8.722;2023-06-22T06:15:02;12.68;;;10.77;;
26588;SDS011;14235;48.532;8.722;2023-06-22T06:17:29;11.13;;;9.98;;
26588;SDS011;14235;48.532;8.722;2023-06-22T06:19:54;13.48;;;10.23;;
26588;SDS011;14235;48.532;8.722;2023-06-22T06:22:20;14.23;;;10.00;;
26588;SDS011;14235;48.532;8.722;2023-06-22T06:24:46;12.20;;;9.77;;
26588;SDS011;14235;48.532;8.722;2023-06-22T06:27:12;10.82;;;9.68;;
26588;SDS011;14235;48.532;8.722;2023-06-22T06:29:38;10.07;;;9.10;;
26588;SDS011;14235;48.532;8.722;2023-06-22T06:32:04;13.43;;;9.00;;
26588;SDS011;14235;48.532;8.722;2023-06-22T06:34:30;9.90;;;8.95;;
26588;SDS011;14235;48.532;8.722;2023-06-22T06:36:55;9.13;;;8.23;;
26588;SDS011;14235;48.532;8.722;2023-06-22T06:39:21;9.20;;;7.97;;
26588;SDS011;14235;48.532;8.722;2023-06-22T06:41:46;9.55;;;8.65;;
26588;SDS011;14235;48.532;8.722;2023-06-22T06:44:12;11.45;;;8.85;;
26588;SDS011;14235;48.532;8.722;2023-06-22T06:46:38;11.20;;;8.45;;
26588;SDS011;14235;48.532;8.722;2023-06-22T06:49:03;9.00;;;8.13;;
26588;SDS011;14235;48.532;8.722;2023-06-22T06:51:29;9.23;;;8.05;;
26588;SDS011;14235;48.532;8.722;2023-06-22T06:53:54;9.27;;;7.85;;
26588;SDS011;14235;48.532;8.722;2023-06-22T06:56:20;8.68;;;7.57;;
26588;SDS011;14235;48.532;8.722;2023-06-22T06:58:46;9.73;;;8.68;;
26588;SDS011;14235;48.532;8.722;2023-06-22T07:01:12;12.00;;;8.45;;
26588;SDS011;14235;48.532;8.722;2023-06-22T07:03:38;8.93;;;7.68;;
26588;SDS011;14235;48.532;8.722;2023-06-22T07:06:05;10.00;;;8.02;;
26588;SDS011;14235;48.532;8.722;2023-06-22T07:08:31;10.85;;;7.60;;
26588;SDS011;14235;48.532;8.722;2023-06-22T07:10:56;9.32;;;7.20;;
26588;SDS011;14235;48.532;8.722;2023-06-22T07:13:22;12.43;;;7.40;;
26588;SDS011;14235;48.532;8.722;2023-06-22T07:15:47;11.23;;;6.90;;
26588;SDS011;14235;48.532;8.722;2023-06-22T07:18:13;7.85;;;7.05;;
26588;SDS011;14235;48.532;8.722;2023-06-22T07:20:38;10.65;;;6.80;;
26588;SDS011;14235;48.532;8.722;2023-06-22T07:23:06;8.63;;;6.72;;
26588;SDS011;14235;48.532;8.722;2023-06-22T07:25:31;12.95;;;7.28;;
26588;SDS011;14235;48.532;8.722;2023-06-22T07:30:24;9.07;;;6.32;;
26588;SDS011;14235;48.532;8.722;2023-06-22T07:32:50;6.93;;;6.22;;
26588;SDS011;14235;48.532;8.722;2023-06-22T07:35:16;8.82;;;6.50;;
26588;SDS011;14235;48.532;8.722;2023-06-22T07:37:41;10.27;;;5.82;;
26588;SDS011;14235;48.532;8.722;2023-06-22T07:40:07;10.43;;;5.90;;
26588;SDS011;14235;48.532;8.722;2023-06-22T07:42:33;10.70;;;6.03;;
26588;SDS011;14235;48.532;8.722;2023-06-22T07:44:59;7.82;;;5.72;;
26588;SDS011;14235;48.532;8.722;2023-06-22T07:47:25;7.60;;;5.70;;
26588;SDS011;14235;48.532;8.722;2023-06-22T07:49:53;9.07;;;5.65;;
26588;SDS011;14235;48.532;8.722;2023-06-22T07:52:24;8.98;;;6.18;;
26588;SDS011;14235;48.532;8.722;2023-06-22T07:54:50;9.88;;;6.32;;
26588;SDS011;14235;48.532;8.722;2023-06-22T07:57:16;8.60;;;5.20;;
26588;SDS011;14235;48.532;8.722;2023-06-22T07:59:41;12.23;;;5.97;;
26588;SDS011;14235;48.532;8.722;2023-06-22T08:02:07;7.78;;;5.22;;
26588;SDS011;14235;48.532;8.722;2023-06-22T08:04:34;8.45;;;5.78;;
26588;SDS011;14235;48.532;8.722;2023-06-22T08:07:00;9.93;;;5.93;;
26588;SDS011;14235;48.532;8.722;2023-06-22T08:09:27;9.30;;;6.07;;
26588;SDS011;14235;48.532;8.722;2023-06-22T08:11:54;8.15;;;6.15;;
26588;SDS011;14235;48.532;8.722;2023-06-22T08:14:21;6.95;;;5.50;;
26588;SDS011;14235;48.532;8.722;2023-06-22T08:16:48;10.50;;;5.70;;
26588;SDS011;14235;48.532;8.722;2023-06-22T08:19:13;8.00;;;5.70;;
26588;SDS011;14235;48.532;8.722;2023-06-22T08:21:39;8.43;;;5.95;;
26588;SDS011;14235;48.532;8.722;2023-06-22T08:24:05;7.95;;;5.88;;
26588;SDS011;14235;48.532;8.722;2023-06-22T08:26:32;11.27;;;6.10;;
26588;SDS011;14235;48.532;8.722;2023-06-22T08:29:01;8.57;;;5.90;;
26588;SDS011;14235;48.532;8.722;2023-06-22T08:31:27;11.07;;;6.05;;
26588;SDS011;14235;48.532;8.722;2023-06-22T08:33:52;7.32;;;5.53;;
26588;SDS011;14235;48.532;8.722;2023-06-22T08:36:18;8.85;;;5.90;;
26588;SDS011;14235;48.532;8.722;2023-06-22T08:38:43;10.88;;;6.30;;
26588;SDS011;14235;48.532;8.722;2023-06-22T08:41:09;8.10;;;5.32;;
26588;SDS011;14235;48.532;8.722;2023-06-22T08:43:35;7.55;;;6.03;;
26588;SDS011;14235;48.532;8.722;2023-06-22T08:46:01;7.18;;;6.20;;
26588;SDS011;14235;48.532;8.722;2023-06-22T08:48:27;12.35;;;6.50;;
26588;SDS011;14235;48.532;8.722;2023-06-22T08:50:54;7.82;;;5.75;;
26588;SDS011;14235;48.532;8.722;2023-06-22T08:53:20;8.35;;;5.93;;
26588;SDS011;14235;48.532;8.722;2023-06-22T08:55:45;9.32;;;5.80;;
26588;SDS011;14235;48.532;8.722;2023-06-22T08:58:11;8.57;;;6.25;;
26588;SDS011;14235;48.532;8.722;2023-06-22T09:00:37;8.13;;;5.95;;
26588;SDS011;14235;48.532;8.722;2023-06-22T09:03:02;10.00;;;6.28;;
26588;SDS011;14235;48.532;8.722;2023-06-22T09:05:28;10.05;;;6.55;;
26588;SDS011;14235;48.532;8.722;2023-06-22T09:07:55;10.52;;;6.28;;
26588;SDS011;14235;48.532;8.722;2023-06-22T09:10:21;13.57;;;6.22;;
26588;SDS011;14235;48.532;8.722;2023-06-22T09:12:47;8.48;;;5.95;;
26588;SDS011;14235;48.532;8.722;2023-06-22T09:15:12;12.15;;;5.95;;
26588;SDS011;14235;48.532;8.722;2023-06-22T09:17:40;11.32;;;6.10;;
26588;SDS011;14235;48.532;8.722;2023-06-22T09:20:05;11.07;;;6.32;;
26588;SDS011;14235;48.532;8.722;2023-06-22T09:22:32;6.60;;;5.88;;
26588;SDS011;14235;48.532;8.722;2023-06-22T09:24:58;13.95;;;6.32;;
26588;SDS011;14235;48.532;8.722;2023-06-22T09:27:25;13.07;;;6.53;;
26588;SDS011;14235;48.532;8.722;2023-06-22T09:29:50;8.00;;;5.93;;
26588;SDS011;14235;48.532;8.722;2023-06-22T09:32:16;8.27;;;6.47;;
26588;SDS011;14235;48.532;8.722;2023-06-22T09:34:41;10.07;;;6.03;;
26588;SDS011;14235;48.532;8.722;2023-06-22T09:37:07;9.30;;;6.13;;
26588;SDS011;14235;48.532;8.722;2023-06-22T09:39:32;9.25;;;5.93;;
26588;SDS011;14235;48.532;8.722;2023-06-22T09:41:59;8.63;;;5.95;;
26588;SDS011;14235;48.532;8.722;2023-06-22T09:44:25;10.40;;;6.57;;
26588;SDS011;14235;48.532;8.722;2023-06-22T09:46:51;7.20;;;6.35;;
26588;SDS011;14235;48.532;8.722;2023-06-22T09:49:16;10.52;;;6.25;;
26588;SDS011;14235;48.532;8.722;2023-06-22T09:51:42;10.18;;;5.85;;
26588;SDS011;14235;48.532;8.722;2023-06-22T09:54:07;8.65;;;6.10;;
26588;SDS011;14235;48.532;8.722;2023-06-22T09:56:33;9.32;;;6.40;;
26588;SDS011;14235;48.532;8.722;2023-06-22T09:58:59;10.63;;;6.20;;
26588;SDS011;14235;48.532;8.722;2023-06-22T10:01:24;8.98;;;6.00;;
26588;SDS011;14235;48.532;8.722;2023-06-22T10:03:51;12.00;;;6.57;;
26588;SDS011;14235;48.532;8.722;2023-06-22T10:06:20;12.88;;;6.50;;
26588;SDS011;14235;48.532;8.722;2023-06-22T10:08:46;9.80;;;6.43;;
26588;SDS011;14235;48.532;8.722;2023-06-22T10:11:13;8.65;;;6.20;;
26588;SDS011;14235;48.532;8.722;2023-06-22T10:13:38;8.00;;;6.10;;
26588;SDS011;14235;48.532;8.722;2023-06-22T10:16:04;10.90;;;6.70;;
26588;SDS011;14235;48.532;8.722;2023-06-22T10:18:30;9.82;;;6.05;;
26588;SDS011;14235;48.532;8.722;2023-06-22T10:20:55;11.50;;;6.07;;
26588;SDS011;14235;48.532;8.722;2023-06-22T10:23:21;11.50;;;6.57;;
26588;SDS011;14235;48.532;8.722;2023-06-22T10:25:47;11.90;;;6.40;;
26588;SDS011;14235;48.532;8.722;2023-06-22T10:28:12;10.43;;;6.30;;
26588;SDS011;14235;48.532;8.722;2023-06-22T10:30:41;8.80;;;6.47;;
26588;SDS011;14235;48.532;8.722;2023-06-22T10:33:07;11.00;;;6.40;;
26588;SDS011;14235;48.532;8.722;2023-06-22T10:35:34;9.63;;;5.82;;
26588;SDS011;14235;48.532;8.722;2023-06-22T10:38:00;10.65;;;6.20;;
26588;SDS011;14235;48.532;8.722;2023-06-22T10:40:25;11.02;;;6.70;;
26588;SDS011;14235;48.532;8.722;2023-06-22T10:42:51;13.02;;;5.88;;
26588;SDS011;14235;48.532;8.722;2023-06-22T10:45:16;10.18;;;5.72;;
26588;SDS011;14235;48.532;8.722;2023-06-22T10:47:42;11.38;;;6.13;;
26588;SDS011;14235;48.532;8.722;2023-06-22T10:50:08;9.10;;;5.80;;
26588;SDS011;14235;48.532;8.722;2023-06-22T10:52:34;10.85;;;6.45;;
26588;SDS011;14235;48.532;8.722;2023-06-22T10:54:59;10.85;;;6.20;;
26588;SDS011;14235;48.532;8.722;2023-06-22T10:57:25;6.45;;;5.85;;
26588;SDS011;14235;48.532;8.722;2023-06-22T10:59:51;10.77;;;6.70;;
26588;SDS011;14235;48.532;8.722;2023-06-22T11:02:16;13.93;;;6.45;;
26588;SDS011;14235;48.532;8.722;2023-06-22T11:04:42;8.93;;;5.78;;
26588;SDS011;14235;48.532;8.722;2023-06-22T11:07:08;9.55;;;5.43;;
26588;SDS011;14235;48.532;8.722;2023-06-22T11:09:34;10.82;;;6.13;;
26588;SDS011;14235;48.532;8.722;2023-06-22T11:12:00;11.13;;;6.82;;
26588;SDS011;14235;48.532;8.722;2023-06-22T11:14:26;9.40;;;6.28;;
26588;SDS011;14235;48.532;8.722;2023-06-22T11:16:52;13.45;;;6.43;;
26588;SDS011;14235;48.532;8.722;2023-06-22T11:19:18;9.43;;;5.97;;
26588;SDS011;14235;48.532;8.722;2023-06-22T11:21:43;9.85;;;5.85;;
26588;SDS011;14235;48.532;8.722;2023-06-22T11:24:09;11.30;;;6.43;;
26588;SDS011;14235;48.532;8.722;2023-06-22T11:26:36;8.45;;;6.35;;
26588;SDS011;14235;48.532;8.722;2023-06-22T11:29:02;15.70;;;6.20;;
26588;SDS011;14235;48.532;8.722;2023-06-22T11:31:30;8.60;;;6.25;;
26588;SDS011;14235;48.532;8.722;2023-06-22T11:33:56;11.30;;;5.80;;
26588;SDS011;14235;48.532;8.722;2023-06-22T11:36:22;12.15;;;6.63;;
26588;SDS011;14235;48.532;8.722;2023-06-22T11:38:50;8.52;;;6.38;;
26588;SDS011;14235;48.532;8.722;2023-06-22T11:41:32;16.50;;;6.45;;
26588;SDS011;14235;48.532;8.722;2023-06-22T11:43:58;8.02;;;6.38;;
26588;SDS011;14235;48.532;8.722;2023-06-22T11:46:23;12.38;;;6.75;;
26588;SDS011;14235;48.532;8.722;2023-06-22T11:48:49;11.30;;;7.03;;
26588;SDS011;14235;48.532;8.722;2023-06-22T11:51:15;12.25;;;6.75;;
26588;SDS011;14235;48.532;8.722;2023-06-22T11:53:40;9.95;;;6.32;;
26588;SDS011;14235;48.532;8.722;2023-06-22T11:56:06;9.35;;;6.68;;
26588;SDS011;14235;48.532;8.722;2023-06-22T11:58:31;12.65;;;6.43;;
26588;SDS011;14235;48.532;8.722;2023-06-22T12:00:57;13.23;;;7.07;;
26588;SDS011;14235;48.532;8.722;2023-06-22T12:03:22;9.02;;;6.20;;
26588;SDS011;14235;48.532;8.722;2023-06-22T12:05:49;7.10;;;6.40;;
26588;SDS011;14235;48.532;8.722;2023-06-22T12:08:15;13.20;;;6.93;;
26588;SDS011;14235;48.532;8.722;2023-06-22T12:10:40;11.38;;;6.60;;
26588;SDS011;14235;48.532;8.722;2023-06-22T12:13:06;11.38;;;6.47;;
26588;SDS011;14235;48.532;8.722;2023-06-22T12:15:31;13.90;;;6.97;;
26588;SDS011;14235;48.532;8.722;2023-06-22T12:17:57;13.95;;;6.90;;
26588;SDS011;14235;48.532;8.722;2023-06-22T12:20:23;11.55;;;7.05;;
26588;SDS011;14235;48.532;8.722;2023-06-22T12:22:48;9.18;;;6.50;;
26588;SDS011;14235;48.532;8.722;2023-06-22T12:25:16;12.93;;;6.70;;
26588;SDS011;14235;48.532;8.722;2023-06-22T12:27:42;11.93;;;7.20;;
26588;SDS011;14235;48.532;8.722;2023-06-22T12:30:08;10.90;;;6.95;;
26588;SDS011;14235;48.532;8.722;2023-06-22T12:32:34;13.85;;;7.20;;
26588;SDS011;14235;48.532;8.722;2023-06-22T12:34:59;9.85;;;6.15;;
26588;SDS011;14235;48.532;8.722;2023-06-22T12:37:25;14.82;;;7.30;;
26588;SDS011;14235;48.532;8.722;2023-06-22T12:39:50;10.32;;;6.97;;
26588;SDS011;14235;48.532;8.722;2023-06-22T12:42:16;10.43;;;6.90;;
26588;SDS011;14235;48.532;8.722;2023-06-22T12:44:42;11.80;;;6.68;;
26588;SDS011;14235;48.532;8.722;2023-06-22T12:47:08;10.20;;;6.65;;
26588;SDS011;14235;48.532;8.722;2023-06-22T12:49:34;11.85;;;7.10;;
26588;SDS011;14235;48.532;8.722;2023-06-22T12:52:01;11.10;;;6.85;;
26588;SDS011;14235;48.532;8.722;2023-06-22T12:54:26;10.85;;;6.70;;
26588;SDS011;14235;48.532;8.722;2023-06-22T12:56:53;9.30;;;6.63;;
26588;SDS011;14235;48.532;8.722;2023-06-22T12:59:18;11.88;;;6.90;;
26588;SDS011;14235;48.532;8.722;2023-06-22T13:01:44;11.82;;;7.28;;
26588;SDS011;14235;48.532;8.722;2023-06-22T13:04:10;14.90;;;7.10;;
26588;SDS011;14235;48.532;8.722;2023-06-22T13:06:39;14.63;;;7.60;;
26588;SDS011;14235;48.532;8.722;2023-06-22T13:09:09;8.32;;;6.55;;
26588;SDS011;14235;48.532;8.722;2023-06-22T13:11:35;15.40;;;7.00;;
26588;SDS011;14235;48.532;8.722;2023-06-22T13:14:01;11.65;;;6.65;;
26588;SDS011;14235;48.532;8.722;2023-06-22T13:16:26;9.57;;;6.70;;
26588;SDS011;14235;48.532;8.722;2023-06-22T13:18:52;13.80;;;7.00;;
26588;SDS011;14235;48.532;8.722;2023-06-22T13:21:17;9.50;;;7.13;;
26588;SDS011;14235;48.532;8.722;2023-06-22T13:23:43;13.30;;;6.70;;
26588;SDS011;14235;48.532;8.722;2023-06-22T13:26:09;10.68;;;6.70;;
26588;SDS011;14235;48.532;8.722;2023-06-22T13:28:34;11.07;;;6.97;;
26588;SDS011;14235;48.532;8.722;2023-06-22T13:31:00;11.50;;;6.80;;
26588;SDS011;14235;48.532;8.722;2023-06-22T13:33:25;12.18;;;7.43;;
26588;SDS011;14235;48.532;8.722;2023-06-22T13:35:51;14.60;;;6.68;;
26588;SDS011;14235;48.532;8.722;2023-06-22T13:38:16;11.77;;;6.93;;
26588;SDS011;14235;48.532;8.722;2023-06-22T13:40:42;11.25;;;6.40;;
26588;SDS011;14235;48.532;8.722;2023-06-22T13:43:08;12.48;;;6.28;;
26588;SDS011;14235;48.532;8.722;2023-06-22T13:45:34;12.82;;;5.82;;
26588;SDS011;14235;48.532;8.722;2023-06-22T13:47:59;8.68;;;5.82;;
26588;SDS011;14235;48.532;8.722;2023-06-22T13:50:25;13.68;;;5.68;;
26588;SDS011;14235;48.532;8.722;2023-06-22T13:52:50;11.15;;;4.65;;
26588;SDS011;14235;48.532;8.722;2023-06-22T13:55:16;11.18;;;5.28;;
26588;SDS011;14235;48.532;8.722;2023-06-22T13:57:42;11.07;;;5.10;;
26588;SDS011;14235;48.532;8.722;2023-06-22T14:00:08;10.85;;;4.72;;
26588;SDS011;14235;48.532;8.722;2023-06-22T14:02:34;11.38;;;4.57;;
26588;SDS011;14235;48.532;8.722;2023-06-22T14:04:59;12.65;;;4.35;;
26588;SDS011;14235;48.532;8.722;2023-06-22T14:07:25;6.07;;;3.70;;
26588;SDS011;14235;48.532;8.722;2023-06-22T14:09:51;10.35;;;4.50;;
26588;SDS011;14235;48.532;8.722;2023-06-22T14:12:16;14.07;;;4.13;;
26588;SDS011;14235;48.532;8.722;2023-06-22T14:14:45;12.52;;;4.05;;
26588;SDS011;14235;48.532;8.722;2023-06-22T14:17:11;12.52;;;4.32;;
26588;SDS011;14235;48.532;8.722;2023-06-22T14:19:36;10.15;;;3.90;;
26588;SDS011;14235;48.532;8.722;2023-06-22T14:22:02;12.73;;;4.15;;
26588;SDS011;14235;48.532;8.722;2023-06-22T14:24:28;14.63;;;4.63;;
26588;SDS011;14235;48.532;8.722;2023-06-22T14:26:54;12.77;;;4.35;;
26588;SDS011;14235;48.532;8.722;2023-06-22T14:29:21;12.68;;;4.30;;
26588;SDS011;14235;48.532;8.722;2023-06-22T14:31:47;15.73;;;4.57;;
26588;SDS011;14235;48.532;8.722;2023-06-22T14:34:13;12.23;;;4.90;;
26588;SDS011;14235;48.532;8.722;2023-06-22T14:36:39;11.23;;;4.57;;
26588;SDS011;14235;48.532;8.722;2023-06-22T14:39:05;11.57;;;4.40;;
26588;SDS011;14235;48.532;8.722;2023-06-22T14:41:30;12.13;;;4.68;;
26588;SDS011;14235;48.532;8.722;2023-06-22T14:43:56;11.50;;;4.38;;
26588;SDS011;14235;48.532;8.722;2023-06-22T14:46:21;11.88;;;5.00;;
26588;SDS011;14235;48.532;8.722;2023-06-22T14:48:47;7.57;;;4.40;;
26588;SDS011;14235;48.532;8.722;2023-06-22T14:51:13;11.55;;;4.60;;